Time;durP1;ratioP1;P1;durP2;ratioP2;P2;SDS_P1;SDS_P2;PMS_P1;PMS_P2;Temp;Humidity;BMP_temperature;BMP_pressure;BME280_temperature;BME280_humidity;BME280_pressure;Samples;Min_cycle;Max_cycle;Signal;HPM_P1;HPM_P2
2021/11/26 00:01:46;;;;;;;14.23;4.10;;;4.20;99.90;;;;;;5058809;28;20214;-73
2021/11/26 00:04:13;;;;;;;11.68;5.18;;;4.20;99.90;;;;;;5069551;28;20305;-74
2021/11/26 00:06:40;;;;;;;9.00;4.47;;;4.10;99.90;;;;;;5060828;28;20205;-77
2021/11/26 00:09:07;;;;;;;11.00;4.43;;;4.20;99.90;;;;;;5073548;28;20209;-74
2021/11/26 00:11:35;;;;;;;7.25;5.63;;;4.20;99.90;;;;;;5059298;28;20279;-73
2021/11/26 00:14:06;;;;;;;17.35;4.90;;;4.10;99.90;;;;;;5061595;28;20262;-76
2021/11/26 00:16:36;;;;;;;13.07;4.30;;;4.10;99.90;;;;;;5061331;28;20625;-74
2021/11/26 00:19:06;;;;;;;12.82;6.30;;;4.20;99.90;;;;;;5061155;28;20246;-76
2021/11/26 00:21:33;;;;;;;12.70;4.47;;;4.10;99.90;;;;;;5067767;28;20209;-76
2021/11/26 00:24:00;;;;;;;8.95;4.18;;;4.10;99.90;;;;;;5070030;28;20752;-77
2021/11/26 00:26:27;;;;;;;9.18;4.32;;;4.00;99.90;;;;;;5069469;28;20697;-76
2021/11/26 00:28:56;;;;;;;13.65;4.32;;;4.10;99.90;;;;;;5056873;28;20291;-74
2021/11/26 00:31:23;;;;;;;11.38;4.30;;;4.10;99.90;;;;;;5064667;28;20211;-76
2021/11/26 00:33:50;;;;;;;11.05;4.75;;;4.10;99.90;;;;;;5061925;28;20302;-74
2021/11/26 00:36:17;;;;;;;15.13;6.70;;;4.10;99.90;;;;;;5058663;28;20202;-74
2021/11/26 00:38:44;;;;;;;10.27;4.93;;;4.10;99.90;;;;;;5068314;28;20296;-74
2021/11/26 00:41:11;;;;;;;11.98;4.25;;;4.10;99.90;;;;;;5055702;28;20626;-73
2021/11/26 00:43:38;;;;;;;10.05;4.75;;;4.10;99.90;;;;;;5064741;28;20602;-75
2021/11/26 00:46:06;;;;;;;8.27;4.95;;;4.00;99.90;;;;;;5061866;28;20242;-76
2021/11/26 00:48:33;;;;;;;9.25;5.43;;;4.10;99.90;;;;;;5070354;28;20210;-74
2021/11/26 00:51:00;;;;;;;12.80;4.57;;;4.10;99.90;;;;;;5060805;28;20214;-75
2021/11/26 00:53:27;;;;;;;10.13;5.20;;;4.10;99.90;;;;;;5065259;28;20209;-74
2021/11/26 00:55:54;;;;;;;12.68;5.00;;;4.10;99.90;;;;;;5072195;28;20301;-77
2021/11/26 00:58:21;;;;;;;19.30;6.45;;;4.10;99.90;;;;;;5071078;28;20285;-74
2021/11/26 01:00:48;;;;;;;8.82;4.88;;;4.10;99.90;;;;;;5062646;28;20213;-74
2021/11/26 01:06:38;;;;;;;9.82;4.90;;;4.10;99.90;;;;;;5064219;28;20187;-72
2021/11/26 01:09:05;;;;;;;14.63;6.68;;;4.10;99.90;;;;;;5067108;28;20241;-72
2021/11/26 01:11:32;;;;;;;13.63;6.80;;;4.10;99.90;;;;;;5077312;28;20248;-76
2021/11/26 01:13:59;;;;;;;10.70;5.65;;;4.10;99.90;;;;;;5069260;28;20314;-73
2021/11/26 01:16:26;;;;;;;20.02;6.90;;;4.10;99.90;;;;;;5073360;28;20644;-74
2021/11/26 01:18:55;;;;;;;13.90;7.00;;;4.10;99.90;;;;;;5075914;28;20199;-76
2021/11/26 01:21:22;;;;;;;7.88;5.65;;;4.10;99.90;;;;;;5067356;28;20199;-73
2021/11/26 01:23:50;;;;;;;14.65;6.07;;;4.10;99.90;;;;;;5077054;28;20281;-75
2021/11/26 01:26:18;;;;;;;15.52;7.18;;;4.20;99.90;;;;;;5068504;28;20290;-73
2021/11/26 01:28:46;;;;;;;9.10;6.20;;;4.20;99.90;;;;;;5067994;28;20249;-76
2021/11/26 01:31:13;;;;;;;21.73;8.55;;;4.30;99.90;;;;;;5061573;28;20261;-74
2021/11/26 01:33:41;;;;;;;16.00;7.55;;;4.40;99.90;;;;;;5062736;28;20211;-74
2021/11/26 01:36:08;;;;;;;16.02;7.97;;;4.40;99.90;;;;;;5060836;28;20226;-76
2021/11/26 01:38:35;;;;;;;13.77;7.85;;;4.40;99.90;;;;;;5072540;28;20225;-76
2021/11/26 01:41:04;;;;;;;26.83;10.13;;;4.40;99.90;;;;;;5061868;28;20238;-78
2021/11/26 01:43:32;;;;;;;18.88;9.73;;;4.40;99.90;;;;;;5060328;28;20195;-75
2021/11/26 01:46:07;;;;;;;15.18;9.60;;;4.40;99.90;;;;;;5065423;28;20289;-76
2021/11/26 01:48:34;;;;;;;23.00;9.20;;;4.40;99.90;;;;;;5070505;28;20203;-78
2021/11/26 01:51:01;;;;;;;18.08;8.95;;;4.40;99.90;;;;;;5072428;28;20199;-75
2021/11/26 01:53:28;;;;;;;16.02;8.85;;;4.40;99.90;;;;;;5075377;28;20486;-76
2021/11/26 01:55:55;;;;;;;18.13;8.32;;;4.40;99.90;;;;;;5065895;28;20761;-75
2021/11/26 01:58:24;;;;;;;18.90;9.15;;;4.50;99.90;;;;;;5058428;28;20203;-75
2021/11/26 02:00:53;;;;;;;27.02;9.13;;;4.50;99.90;;;;;;5065982;28;20235;-75
2021/11/26 02:03:20;;;;;;;19.38;9.70;;;4.60;99.90;;;;;;5062694;28;20227;-76
2021/11/26 02:05:47;;;;;;;25.10;10.23;;;4.70;99.90;;;;;;5072985;28;20222;-74
2021/11/26 02:08:16;;;;;;;21.30;8.65;;;4.70;99.90;;;;;;5077037;28;20270;-73
2021/11/26 02:10:43;;;;;;;22.00;9.75;;;4.70;99.90;;;;;;5071702;28;20717;-77
2021/11/26 02:13:11;;;;;;;24.75;9.32;;;4.70;99.90;;;;;;5062936;28;20275;-75
2021/11/26 02:15:42;;;;;;;17.45;10.55;;;4.70;99.90;;;;;;5075317;28;20294;-74
2021/11/26 02:18:10;;;;;;;14.13;8.43;;;4.80;99.90;;;;;;5076306;28;20211;-74
2021/11/26 02:20:39;;;;;;;19.00;10.15;;;4.90;99.90;;;;;;5069387;28;20207;-73
2021/11/26 02:23:07;;;;;;;21.77;9.00;;;4.80;99.90;;;;;;5068670;28;20208;-76
2021/11/26 02:25:34;;;;;;;24.60;10.27;;;4.80;99.90;;;;;;5059582;28;20230;-73
2021/11/26 02:28:07;;;;;;;23.17;13.13;;;4.90;99.90;;;;;;5063750;28;20204;-73
2021/11/26 02:30:34;;;;;;;46.65;11.48;;;4.80;99.90;;;;;;5075579;28;20278;-77
2021/11/26 02:33:03;;;;;;;18.92;10.50;;;4.80;99.90;;;;;;5069991;28;20294;-75
2021/11/26 02:35:32;;;;;;;16.80;10.20;;;4.90;99.90;;;;;;5076701;28;20300;-74
2021/11/26 02:38:01;;;;;;;22.35;11.02;;;4.90;99.90;;;;;;5076837;28;20298;-73
2021/11/26 02:40:30;;;;;;;23.83;11.50;;;4.80;99.90;;;;;;5069324;28;20195;-74
2021/11/26 02:42:58;;;;;;;22.63;12.27;;;4.80;99.90;;;;;;5063278;28;20639;-75
2021/11/26 02:45:27;;;;;;;25.50;12.75;;;4.80;99.90;;;;;;5063345;28;20321;-75
2021/11/26 02:47:55;;;;;;;25.77;16.30;;;4.70;99.90;;;;;;5072189;28;20199;-74
2021/11/26 02:50:24;;;;;;;24.33;14.65;;;4.70;99.90;;;;;;5065837;28;20267;-73
2021/11/26 02:52:51;;;;;;;36.58;18.85;;;4.60;99.90;;;;;;5063680;28;20706;-74
2021/11/26 02:55:22;;;;;;;36.13;19.77;;;4.60;99.90;;;;;;5078340;28;20218;-71
2021/11/26 02:57:51;;;;;;;34.78;18.45;;;4.50;99.90;;;;;;5075421;28;20267;-72
2021/11/26 03:00:21;;;;;;;41.05;20.48;;;4.50;99.90;;;;;;5063888;28;20303;-75
2021/11/26 03:02:48;;;;;;;30.60;20.30;;;4.50;99.90;;;;;;5069141;28;20667;-73
2021/11/26 03:05:16;;;;;;;33.25;19.75;;;4.50;99.90;;;;;;5058920;28;20241;-73
2021/11/26 03:07:44;;;;;;;32.08;19.70;;;4.70;99.90;;;;;;5063305;28;20643;-76
2021/11/26 03:10:16;;;;;;;32.40;21.40;;;4.70;99.90;;;;;;5061531;28;20231;-73
2021/11/26 03:12:45;;;;;;;35.10;20.15;;;4.70;99.90;;;;;;5072992;28;20252;-75
2021/11/26 03:15:12;;;;;;;36.47;20.27;;;4.70;99.90;;;;;;5069207;28;20214;-71
2021/11/26 03:17:39;;;;;;;42.38;23.85;;;4.70;99.90;;;;;;5063068;28;20215;-74
2021/11/26 03:20:07;;;;;;;38.10;20.83;;;4.70;99.90;;;;;;5063007;28;20207;-72
2021/11/26 03:22:34;;;;;;;34.25;21.80;;;4.70;99.90;;;;;;5061636;28;20206;-74
2021/11/26 03:25:02;;;;;;;39.83;24.02;;;4.70;99.90;;;;;;5059200;28;20227;-72
2021/11/26 03:27:29;;;;;;;41.58;22.23;;;4.70;99.90;;;;;;5057897;28;20513;-72
2021/11/26 03:29:57;;;;;;;38.33;22.85;;;4.70;99.90;;;;;;5066552;28;20213;-72
2021/11/26 03:32:24;;;;;;;37.97;20.75;;;4.70;99.90;;;;;;5061175;28;20286;-74
2021/11/26 03:34:52;;;;;;;43.10;22.95;;;4.80;99.90;;;;;;5056815;28;20229;-71
2021/11/26 03:37:18;;;;;;;47.53;23.52;;;4.70;99.90;;;;;;5065024;28;20206;-73
2021/11/26 03:39:45;;;;;;;39.80;23.15;;;4.70;99.90;;;;;;5062458;28;20211;-71
2021/11/26 03:42:12;;;;;;;41.25;26.63;;;4.70;99.90;;;;;;5057351;28;20294;-73
2021/11/26 03:44:39;;;;;;;46.83;25.23;;;4.70;99.90;;;;;;5060646;28;20233;-72
2021/11/26 03:47:08;;;;;;;47.47;24.92;;;4.70;99.90;;;;;;5066124;28;20238;-72
2021/11/26 03:49:35;;;;;;;63.13;25.83;;;4.70;99.90;;;;;;5059872;28;20564;-71
2021/11/26 03:52:02;;;;;;;53.75;26.05;;;4.70;99.90;;;;;;5057709;28;20200;-73
2021/11/26 03:54:29;;;;;;;46.80;23.05;;;4.60;99.90;;;;;;5062956;28;20261;-73
2021/11/26 03:56:56;;;;;;;42.50;24.13;;;4.60;99.90;;;;;;5059461;28;20594;-72
2021/11/26 03:59:23;;;;;;;50.00;24.17;;;4.70;99.90;;;;;;5070619;28;20230;-72
2021/11/26 04:01:50;;;;;;;38.03;23.08;;;4.70;99.90;;;;;;5060498;28;20290;-71
2021/11/26 04:04:18;;;;;;;38.55;23.77;;;4.70;99.90;;;;;;5068019;28;20306;-72
2021/11/26 04:06:45;;;;;;;42.25;22.73;;;4.70;99.90;;;;;;5066314;28;20221;-73
2021/11/26 04:09:12;;;;;;;38.22;23.90;;;4.80;99.90;;;;;;5069835;28;20561;-72
2021/11/26 04:11:39;;;;;;;40.97;22.15;;;4.70;99.90;;;;;;5060724;28;20216;-71
2021/11/26 04:14:06;;;;;;;46.95;24.02;;;4.70;99.90;;;;;;5070050;28;20246;-73
2021/11/26 04:16:36;;;;;;;35.10;21.33;;;4.80;99.90;;;;;;5061281;28;20206;-73
2021/11/26 04:19:03;;;;;;;37.47;22.40;;;4.90;99.90;;;;;;5063621;28;20209;-73
2021/11/26 04:21:32;;;;;;;38.55;22.77;;;4.90;99.90;;;;;;5057722;28;20659;-73
2021/11/26 04:24:02;;;;;;;37.13;21.58;;;4.90;99.90;;;;;;5061347;28;20224;-73
2021/11/26 04:26:29;;;;;;;41.47;21.95;;;5.00;99.90;;;;;;5061782;28;20238;-73
2021/11/26 04:28:56;;;;;;;44.40;23.48;;;4.90;99.90;;;;;;5073278;28;20287;-73
2021/11/26 04:31:23;;;;;;;33.25;18.80;;;4.90;99.90;;;;;;5061824;28;20638;-74
2021/11/26 04:33:50;;;;;;;48.45;23.60;;;4.90;99.90;;;;;;5065128;28;20211;-72
2021/11/26 04:36:17;;;;;;;38.13;21.70;;;4.90;99.90;;;;;;5064667;28;20203;-71
2021/11/26 04:38:45;;;;;;;42.65;23.00;;;4.90;99.90;;;;;;5068167;28;20207;-74
2021/11/26 04:41:13;;;;;;;44.40;21.45;;;4.90;99.90;;;;;;5066398;28;20517;-75
2021/11/26 04:43:39;;;;;;;37.53;22.80;;;5.00;99.90;;;;;;5061483;28;20221;-73
2021/11/26 04:46:06;;;;;;;37.40;22.15;;;5.00;99.90;;;;;;5072057;28;20562;-73
2021/11/26 04:48:37;;;;;;;43.50;23.45;;;5.00;99.90;;;;;;5073221;28;20313;-75
2021/11/26 04:51:04;;;;;;;45.42;23.15;;;5.00;99.90;;;;;;5073225;28;20203;-72
2021/11/26 04:53:31;;;;;;;37.70;21.63;;;5.00;99.90;;;;;;5070231;28;20554;-74
2021/11/26 04:55:59;;;;;;;39.55;19.42;;;5.00;99.90;;;;;;5070980;28;20623;-73
2021/11/26 04:58:26;;;;;;;42.22;23.48;;;5.10;99.90;;;;;;5072878;28;20709;-73
2021/11/26 05:00:53;;;;;;;36.25;22.05;;;5.00;99.90;;;;;;5070853;28;20217;-72
2021/11/26 05:03:20;;;;;;;34.88;20.27;;;5.10;99.90;;;;;;5056831;28;20203;-74
2021/11/26 05:05:47;;;;;;;44.72;22.60;;;5.10;99.90;;;;;;5071562;28;20314;-73
2021/11/26 05:08:18;;;;;;;37.25;20.98;;;5.10;99.90;;;;;;5063796;28;20204;-74
2021/11/26 05:10:51;;;;;;;34.55;21.33;;;5.20;99.90;;;;;;5059327;28;20285;-72
2021/11/26 05:13:19;;;;;;;29.50;19.70;;;5.10;99.90;;;;;;5063236;28;20253;-74
2021/11/26 05:15:46;;;;;;;43.38;22.30;;;5.20;99.90;;;;;;5055832;28;20245;-73
2021/11/26 05:18:13;;;;;;;35.10;21.58;;;5.10;99.90;;;;;;5067479;28;20635;-73
2021/11/26 05:20:40;;;;;;;40.00;23.80;;;5.10;99.90;;;;;;5060643;28;20286;-72
2021/11/26 05:23:07;;;;;;;38.80;21.55;;;5.10;99.90;;;;;;5069624;28;20205;-73
2021/11/26 05:25:34;;;;;;;41.55;24.42;;;5.10;99.90;;;;;;5067301;28;20219;-72
2021/11/26 05:28:01;;;;;;;38.47;22.13;;;5.10;99.90;;;;;;5070154;28;20679;-73
2021/11/26 05:30:30;;;;;;;40.25;23.08;;;5.20;99.90;;;;;;5068855;28;20199;-71
2021/11/26 05:32:56;;;;;;;35.58;22.60;;;5.30;99.90;;;;;;5065144;28;20301;-73
2021/11/26 05:35:23;;;;;;;47.90;24.25;;;5.30;99.90;;;;;;5072750;28;20306;-73
2021/11/26 05:37:50;;;;;;;33.97;23.23;;;5.30;99.90;;;;;;5066824;28;20558;-74
2021/11/26 05:40:19;;;;;;;40.53;22.00;;;5.30;99.90;;;;;;5069100;28;20199;-72
2021/11/26 05:42:47;;;;;;;36.80;22.58;;;5.30;99.90;;;;;;5068052;28;20623;-72
2021/11/26 05:45:16;;;;;;;42.17;22.10;;;5.40;99.90;;;;;;5070857;28;20262;-72
2021/11/26 05:47:45;;;;;;;33.22;19.95;;;5.40;99.90;;;;;;5064050;28;20574;-72
2021/11/26 05:50:14;;;;;;;34.15;22.30;;;5.30;99.90;;;;;;5062818;28;20215;-73
2021/11/26 05:52:41;;;;;;;43.80;22.65;;;5.30;99.90;;;;;;5062097;28;20290;-71
2021/11/26 05:55:11;;;;;;;38.03;23.98;;;5.40;99.90;;;;;;5075615;28;20594;-74
2021/11/26 05:57:38;;;;;;;31.75;19.95;;;5.50;99.90;;;;;;5074075;28;20295;-71
2021/11/26 06:00:09;;;;;;;37.97;22.15;;;5.50;99.90;;;;;;5074098;28;20721;-74
2021/11/26 06:03:06;;;;;;;35.20;23.38;;;5.50;99.90;;;;;;5074549;28;20231;-72
2021/11/26 06:05:33;;;;;;;41.13;23.35;;;5.50;99.90;;;;;;5071005;28;20234;-73
2021/11/26 06:08:00;;;;;;;37.72;24.20;;;5.50;99.90;;;;;;5071165;28;20283;-72
2021/11/26 06:10:32;;;;;;;41.63;24.33;;;5.50;99.90;;;;;;5074867;28;20680;-75
2021/11/26 06:12:59;;;;;;;41.15;23.73;;;5.50;99.90;;;;;;5067732;28;20282;-75
2021/11/26 06:15:30;;;;;;;38.75;21.17;;;5.50;99.90;;;;;;5066267;28;20227;-74
2021/11/26 06:17:57;;;;;;;48.00;25.63;;;5.50;99.90;;;;;;5075929;28;20278;-72
2021/11/26 06:20:26;;;;;;;46.40;26.42;;;5.50;99.90;;;;;;5075708;28;20610;-74
2021/11/26 06:22:55;;;;;;;43.22;25.00;;;5.50;99.90;;;;;;5075694;28;20248;-75
2021/11/26 06:25:24;;;;;;;42.35;25.45;;;5.40;99.90;;;;;;5066646;28;20234;-73
2021/11/26 06:27:52;;;;;;;39.50;24.55;;;5.40;99.90;;;;;;5067757;28;20196;-73
2021/11/26 06:30:23;;;;;;;53.08;25.52;;;5.40;99.90;;;;;;5074516;28;20290;-73
2021/11/26 06:32:50;;;;;;;47.90;24.50;;;5.30;99.90;;;;;;5069986;28;20211;-73
2021/11/26 06:35:20;;;;;;;54.30;27.77;;;5.30;99.90;;;;;;5061740;28;20238;-74
2021/11/26 06:37:54;;;;;;;44.70;23.65;;;5.40;99.90;;;;;;5076057;28;20199;-75
2021/11/26 06:40:21;;;;;;;40.85;23.33;;;5.40;99.90;;;;;;5061933;28;20199;-76
2021/11/26 06:42:49;;;;;;;43.33;25.45;;;5.40;99.90;;;;;;5075785;28;20227;-75
2021/11/26 06:45:16;;;;;;;49.30;25.92;;;5.40;99.90;;;;;;5074071;28;20214;-74
2021/11/26 06:47:45;;;;;;;46.05;27.50;;;5.40;99.90;;;;;;5069201;28;20261;-74
2021/11/26 06:50:13;;;;;;;49.28;23.95;;;5.50;99.90;;;;;;5062556;28;20560;-72
2021/11/26 06:52:40;;;;;;;42.00;26.85;;;5.70;99.90;;;;;;5063602;28;20200;-74
2021/11/26 06:55:10;;;;;;;53.35;26.92;;;5.60;99.90;;;;;;5073426;28;20215;-74
2021/11/26 06:57:38;;;;;;;52.65;27.13;;;5.50;99.90;;;;;;5070330;28;20188;-76
2021/11/26 07:00:07;;;;;;;38.90;25.20;;;5.60;99.90;;;;;;5072021;28;20214;-74
2021/11/26 07:02:34;;;;;;;43.55;24.98;;;5.50;99.90;;;;;;5055255;28;20192;-76
2021/11/26 07:05:01;;;;;;;53.15;27.40;;;5.50;99.90;;;;;;5073078;28;20224;-76
2021/11/26 07:07:28;;;;;;;42.33;25.30;;;5.50;99.90;;;;;;5059789;28;20603;-72
2021/11/26 07:09:55;;;;;;;42.53;26.00;;;5.50;99.90;;;;;;5069258;28;20650;-75
2021/11/26 07:12:24;;;;;;;47.58;25.40;;;5.60;99.90;;;;;;5063041;28;20295;-74
2021/11/26 07:14:51;;;;;;;44.90;27.88;;;5.60;99.90;;;;;;5063401;28;20259;-73
2021/11/26 07:17:18;;;;;;;43.63;25.10;;;5.60;99.90;;;;;;5071625;28;20268;-74
2021/11/26 07:19:47;;;;;;;42.05;24.63;;;5.60;99.90;;;;;;5076261;28;20195;-72
2021/11/26 07:22:15;;;;;;;41.08;25.02;;;5.50;99.90;;;;;;5069997;28;20239;-71
2021/11/26 07:24:41;;;;;;;47.22;25.88;;;5.50;99.90;;;;;;5065557;28;20332;-72
2021/11/26 07:27:10;;;;;;;39.70;23.08;;;5.70;99.90;;;;;;5060391;28;20668;-71
2021/11/26 07:29:39;;;;;;;38.58;24.08;;;5.70;99.90;;;;;;5069605;28;20254;-69
2021/11/26 07:32:07;;;;;;;38.80;22.88;;;5.70;99.90;;;;;;5075987;28;20201;-71
2021/11/26 07:34:34;;;;;;;41.65;24.33;;;5.70;99.90;;;;;;5066018;28;20292;-70
2021/11/26 07:37:01;;;;;;;38.92;24.85;;;5.70;99.90;;;;;;5068975;28;20275;-71
2021/11/26 07:39:33;;;;;;;49.38;25.45;;;5.70;99.90;;;;;;5072978;28;20608;-74
2021/11/26 07:42:02;;;;;;;41.97;25.10;;;5.80;99.90;;;;;;5069769;28;20425;-74
2021/11/26 07:44:35;;;;;;;39.65;23.95;;;5.70;99.90;;;;;;5055552;28;20588;-75
2021/11/26 07:47:06;;;;;;;41.08;22.50;;;5.70;99.90;;;;;;5068160;28;20952;-72
2021/11/26 07:49:33;;;;;;;38.85;22.10;;;5.70;99.90;;;;;;5070279;28;20283;-69
2021/11/26 07:52:02;;;;;;;36.33;22.65;;;5.70;99.90;;;;;;5066658;28;20211;-70
2021/11/26 07:54:30;;;;;;;37.72;21.65;;;5.80;99.90;;;;;;5061491;28;20690;-71
2021/11/26 07:56:57;;;;;;;38.53;22.23;;;5.80;99.90;;;;;;5073178;28;20296;-71
2021/11/26 07:59:26;;;;;;;32.92;20.15;;;5.90;99.90;;;;;;5068842;28;20279;-71
2021/11/26 08:01:54;;;;;;;35.20;23.17;;;5.90;99.90;;;;;;5069402;28;20252;-70
2021/11/26 08:04:22;;;;;;;39.17;22.92;;;5.90;99.90;;;;;;5065671;28;20224;-71
2021/11/26 08:06:49;;;;;;;35.53;23.98;;;5.90;99.90;;;;;;5064233;28;20226;-74
2021/11/26 08:09:17;;;;;;;37.55;23.10;;;5.90;99.90;;;;;;5065342;28;20733;-74
2021/11/26 08:11:45;;;;;;;35.83;22.50;;;5.90;99.90;;;;;;5064227;28;20625;-74
2021/11/26 08:14:14;;;;;;;40.17;22.48;;;5.90;99.90;;;;;;5060655;28;20322;-70
2021/11/26 08:16:41;;;;;;;40.20;22.90;;;5.90;99.90;;;;;;5060655;28;20686;-71
2021/11/26 08:19:10;;;;;;;36.97;23.70;;;5.90;99.90;;;;;;5063449;28;20350;-71
2021/11/26 08:21:39;;;;;;;45.85;23.83;;;5.90;99.90;;;;;;5060518;28;20693;-74
2021/11/26 08:24:08;;;;;;;38.58;24.90;;;5.90;99.90;;;;;;5056004;28;20338;-74
2021/11/26 08:26:35;;;;;;;38.90;23.67;;;5.80;99.90;;;;;;5064536;28;20212;-75
2021/11/26 08:29:03;;;;;;;34.80;22.85;;;5.90;99.90;;;;;;5059925;28;20658;-74
2021/11/26 08:31:30;;;;;;;44.10;24.63;;;6.00;99.90;;;;;;5056974;28;20300;-73
2021/11/26 08:33:58;;;;;;;37.60;23.35;;;6.00;99.90;;;;;;5066217;28;20232;-71
2021/11/26 08:36:25;;;;;;;37.60;23.35;;;6.00;99.90;;;;;;5056949;28;20216;-70
2021/11/26 08:38:56;;;;;;;39.95;23.38;;;6.00;99.90;;;;;;5071302;28;20294;-71
2021/11/26 08:41:24;;;;;;;38.22;21.65;;;6.10;99.90;;;;;;5069911;28;20605;-69
2021/11/26 08:43:52;;;;;;;39.05;20.90;;;6.10;99.90;;;;;;5065060;28;20200;-74
2021/11/26 08:46:23;;;;;;;33.58;22.92;;;6.10;99.90;;;;;;5060454;28;20283;-76
2021/11/26 08:48:50;;;;;;;31.88;21.60;;;6.10;99.90;;;;;;5055842;28;20724;-73
2021/11/26 08:51:18;;;;;;;31.17;19.75;;;6.10;99.90;;;;;;5069584;28;20288;-73
2021/11/26 08:53:46;;;;;;;37.35;23.17;;;6.00;99.90;;;;;;5058868;28;20208;-71
2021/11/26 08:56:18;;;;;;;35.80;22.35;;;6.10;99.90;;;;;;5059291;28;20196;-78
2021/11/26 08:58:46;;;;;;;33.58;20.75;;;6.20;99.90;;;;;;5069961;28;20208;-74
2021/11/26 09:01:13;;;;;;;32.13;22.55;;;6.20;99.90;;;;;;5057564;28;20370;-74
2021/11/26 09:03:40;;;;;;;31.17;21.30;;;6.40;99.90;;;;;;5068493;28;20237;-70
2021/11/26 09:06:07;;;;;;;30.23;20.70;;;6.40;99.90;;;;;;5067517;28;20718;-70
2021/11/26 09:08:35;;;;;;;31.45;19.17;;;6.50;99.90;;;;;;5066048;28;20305;-70
2021/11/26 09:11:03;;;;;;;32.17;19.52;;;6.60;99.90;;;;;;5065152;28;20204;-72
2021/11/26 09:13:34;;;;;;;27.80;20.98;;;6.60;99.90;;;;;;5063896;28;20213;-72
2021/11/26 09:16:02;;;;;;;30.67;20.30;;;6.60;99.90;;;;;;5065867;28;20244;-72
2021/11/26 09:18:30;;;;;;;26.48;18.63;;;6.70;99.90;;;;;;5056687;28;20263;-71
2021/11/26 09:20:58;;;;;;;31.83;19.27;;;6.70;99.90;;;;;;5056228;28;20211;-72
2021/11/26 09:23:26;;;;;;;38.28;19.20;;;6.70;99.90;;;;;;5059545;28;20214;-72
2021/11/26 09:25:53;;;;;;;27.63;19.05;;;6.70;99.90;;;;;;5065761;28;20229;-76
2021/11/26 09:28:21;;;;;;;33.05;18.13;;;6.60;99.90;;;;;;5059394;28;20225;-71
2021/11/26 09:30:50;;;;;;;27.13;18.50;;;6.70;99.90;;;;;;5066909;28;20288;-70
2021/11/26 09:33:19;;;;;;;27.05;18.00;;;6.80;99.90;;;;;;5069983;28;20297;-71
2021/11/26 09:35:47;;;;;;;22.80;16.10;;;6.90;99.90;;;;;;5071294;28;20303;-71
2021/11/26 09:38:15;;;;;;;25.88;17.10;;;6.90;99.90;;;;;;5066271;28;20234;-70
2021/11/26 09:40:44;;;;;;;23.67;15.88;;;7.10;99.90;;;;;;5064462;28;20255;-72
2021/11/26 09:43:11;;;;;;;27.00;14.63;;;7.20;99.90;;;;;;5065975;28;20207;-70
2021/11/26 09:45:39;;;;;;;21.45;16.13;;;7.20;99.90;;;;;;5066855;28;20222;-73
2021/11/26 09:48:09;;;;;;;22.05;15.55;;;7.20;99.90;;;;;;5070861;28;20214;-70
2021/11/26 09:50:38;;;;;;;21.48;14.55;;;7.20;99.90;;;;;;5061200;28;20198;-70
2021/11/26 09:53:14;;;;;;;22.02;15.55;;;7.20;99.90;;;;;;5062862;28;20389;-71
2021/11/26 09:55:46;;;;;;;22.23;15.02;;;7.20;99.90;;;;;;5064487;28;20228;-71
2021/11/26 09:58:16;;;;;;;24.48;15.32;;;7.20;99.90;;;;;;5060768;28;20294;-71
2021/11/26 10:00:45;;;;;;;21.00;15.98;;;7.10;99.90;;;;;;5073945;28;20208;-71
2021/11/26 10:03:14;;;;;;;17.65;12.38;;;7.20;99.90;;;;;;5073539;28;20651;-71
2021/11/26 10:05:41;;;;;;;20.45;13.80;;;7.10;99.90;;;;;;5069037;28;20704;-71
2021/11/26 10:08:10;;;;;;;23.95;13.98;;;7.10;99.90;;;;;;5063742;28;20252;-71
2021/11/26 10:10:41;;;;;;;20.25;14.00;;;7.00;99.90;;;;;;5068969;28;20212;-72
2021/11/26 10:13:16;;;;;;;18.30;11.73;;;7.00;99.90;;;;;;5071180;28;20617;-71
2021/11/26 10:15:48;;;;;;;17.67;12.88;;;7.10;99.90;;;;;;5066601;28;20259;-74
2021/11/26 10:18:18;;;;;;;19.40;13.32;;;7.00;99.90;;;;;;5072180;28;20276;-74
2021/11/26 10:21:03;;;;;;;17.35;13.05;;;7.00;99.90;;;;;;5064360;28;20209;-70
2021/11/26 10:23:32;;;;;;;17.48;12.13;;;7.20;99.90;;;;;;5058004;28;20202;-71
2021/11/26 10:26:12;;;;;;;14.32;12.30;;;7.20;99.90;;;;;;5055484;28;20293;-73
2021/11/26 10:28:39;;;;;;;18.80;12.05;;;7.20;99.90;;;;;;5064962;28;20221;-71
2021/11/26 10:31:07;;;;;;;17.55;13.63;;;7.10;99.90;;;;;;5071182;28;20295;-71
2021/11/26 10:33:35;;;;;;;19.35;12.63;;;7.10;99.90;;;;;;5066667;28;20209;-71
2021/11/26 10:36:06;;;;;;;19.42;12.70;;;7.10;99.90;;;;;;5068519;28;20210;-71
2021/11/26 10:38:35;;;;;;;16.48;11.77;;;7.20;99.90;;;;;;5055164;28;20198;-73
2021/11/26 10:41:06;;;;;;;15.60;10.93;;;7.10;99.90;;;;;;5066000;28;20252;-72
2021/11/26 10:43:39;;;;;;;19.35;12.30;;;7.30;99.90;;;;;;5074579;28;20304;-73
2021/11/26 10:49:20;;;;;;;17.00;11.35;;;7.30;99.90;;;;;;5066859;28;20228;-70
2021/11/26 10:57:54;;;;;;;17.30;11.43;;;7.40;99.90;;;;;;5013037;28;20199;-74
2021/11/26 11:00:23;;;;;;;12.48;11.15;;;7.30;99.90;;;;;;5013008;28;20199;-73
2021/11/26 11:03:29;;;;;;;16.00;10.75;;;7.20;99.90;;;;;;5012876;28;20295;-73
2021/11/26 11:05:57;;;;;;;19.85;10.43;;;7.30;99.90;;;;;;5006934;28;20290;-74
2021/11/26 11:08:25;;;;;;;14.45;10.13;;;7.20;99.90;;;;;;5036637;28;20235;-71
2021/11/26 11:11:05;;;;;;;16.52;10.15;;;7.30;99.90;;;;;;5056786;28;20210;-73
2021/11/26 11:13:32;;;;;;;21.33;10.50;;;7.40;99.90;;;;;;5070276;28;20259;-74
2021/11/26 11:16:13;;;;;;;13.10;9.43;;;7.40;99.90;;;;;;5072471;28;20245;-71
2021/11/26 11:18:41;;;;;;;14.48;9.57;;;7.40;99.90;;;;;;5069139;28;20573;-71
2021/11/26 11:21:10;;;;;;;19.63;10.10;;;7.50;99.90;;;;;;5062928;28;20259;-72
2021/11/26 11:23:38;;;;;;;13.48;9.07;;;7.50;99.90;;;;;;5068244;28;20212;-73
2021/11/26 11:26:06;;;;;;;17.30;10.45;;;7.60;99.90;;;;;;5066055;28;20202;-73
2021/11/26 11:28:33;;;;;;;21.33;11.13;;;7.50;99.90;;;;;;5062177;28;20218;-79
2021/11/26 11:31:00;;;;;;;18.08;9.60;;;7.50;99.90;;;;;;5066647;28;20212;-75
2021/11/26 11:33:31;;;;;;;20.02;10.65;;;7.50;99.90;;;;;;5063441;28;20195;-74
2021/11/26 11:36:00;;;;;;;12.93;8.23;;;7.30;99.90;;;;;;5064529;28;20218;-72
2021/11/26 11:38:28;;;;;;;16.02;9.57;;;7.40;99.90;;;;;;5064674;28;20198;-72
2021/11/26 11:41:00;;;;;;;24.05;11.75;;;7.30;99.90;;;;;;5066612;28;20610;-75
2021/11/26 11:43:28;;;;;;;18.27;9.50;;;7.20;99.90;;;;;;5063254;28;20279;-72
2021/11/26 11:45:58;;;;;;;15.70;8.93;;;7.20;99.90;;;;;;5071790;28;20736;-72
2021/11/26 11:48:26;;;;;;;20.52;9.43;;;7.30;99.90;;;;;;5068912;28;20292;-70
2021/11/26 11:50:54;;;;;;;11.73;8.13;;;7.20;99.90;;;;;;5065549;28;20708;-72
2021/11/26 11:53:29;;;;;;;16.52;8.55;;;7.10;99.90;;;;;;5062651;28;21954;-73
2021/11/26 11:56:07;;;;;;;12.27;8.48;;;7.20;99.90;;;;;;5069959;28;20324;-74
2021/11/26 11:58:46;;;;;;;13.18;9.75;;;7.30;99.90;;;;;;5055110;28;20719;-72
2021/11/26 12:01:21;;;;;;;18.83;8.43;;;7.20;99.90;;;;;;5065123;28;20248;-75
2021/11/26 12:03:49;;;;;;;14.13;8.88;;;7.10;99.90;;;;;;5066739;28;20222;-76
2021/11/26 12:06:17;;;;;;;13.80;8.63;;;7.20;99.90;;;;;;5060080;28;20281;-73
2021/11/26 12:08:46;;;;;;;13.25;9.02;;;7.30;99.90;;;;;;5066327;28;20261;-74
2021/11/26 12:11:27;;;;;;;14.45;8.75;;;7.30;99.90;;;;;;5063039;28;20563;-74
2021/11/26 12:14:03;;;;;;;14.90;8.52;;;7.30;99.90;;;;;;5069842;28;20280;-74
2021/11/26 12:16:32;;;;;;;17.55;8.32;;;7.30;99.90;;;;;;5072284;28;20301;-73
2021/11/26 12:18:59;;;;;;;18.52;8.85;;;7.20;99.90;;;;;;5069227;28;20206;-75
2021/11/26 12:21:29;;;;;;;11.73;7.78;;;7.20;99.90;;;;;;5071449;28;20676;-75
2021/11/26 12:24:08;;;;;;;12.77;8.65;;;7.20;99.90;;;;;;5072792;28;20247;-75
2021/11/26 12:26:51;;;;;;;16.15;8.77;;;7.20;99.90;;;;;;5066207;28;20675;-75
2021/11/26 12:29:21;;;;;;;10.05;6.20;;;7.30;99.90;;;;;;5047184;28;20233;-75
2021/11/26 12:31:49;;;;;;;13.82;7.63;;;7.20;99.90;;;;;;5068589;28;20224;-74
2021/11/26 12:34:19;;;;;;;9.68;8.07;;;7.20;99.90;;;;;;5067762;28;20248;-75
2021/11/26 12:36:50;;;;;;;11.25;7.00;;;7.20;99.90;;;;;;5060746;28;20206;-73
2021/11/26 12:39:21;;;;;;;11.90;7.55;;;7.30;99.90;;;;;;5063583;28;20230;-75
2021/11/26 12:41:52;;;;;;;11.50;6.97;;;7.30;99.90;;;;;;5062072;28;20201;-73
2021/11/26 12:44:21;;;;;;;13.98;7.13;;;7.30;99.90;;;;;;5056139;28;20233;-73
2021/11/26 12:46:54;;;;;;;9.20;7.50;;;7.30;99.90;;;;;;5063944;28;20580;-73
2021/11/26 12:52:04;;;;;;;12.68;8.20;;;7.20;99.90;;;;;;5056254;28;20544;-72
2021/11/26 12:54:34;;;;;;;14.70;7.50;;;7.20;99.90;;;;;;5053223;28;20252;-73
2021/11/26 12:57:05;;;;;;;13.60;6.65;;;7.10;99.90;;;;;;5071238;28;20202;-71
2021/11/26 12:59:35;;;;;;;14.43;7.68;;;7.10;99.90;;;;;;5066699;28;20993;-72
2021/11/26 13:02:04;;;;;;;12.85;6.78;;;7.20;99.90;;;;;;5057669;28;20293;-73
2021/11/26 13:04:31;;;;;;;15.02;7.95;;;7.10;99.90;;;;;;5053813;28;20226;-73